createdAt,value
2023-03-15T00:02:04.206Z,83.68
2023-03-15T00:04:37.207Z,81.81
2023-03-15T00:07:11.429Z,80.78
2023-03-15T00:09:41.697Z,79.08
2023-03-15T00:12:12.505Z,78.74
2023-03-15T00:14:42.946Z,77.85
2023-03-15T00:17:16.791Z,77.34
2023-03-15T00:19:48.174Z,76.81
2023-03-15T00:22:23.407Z,76.51
2023-03-15T00:24:53.761Z,76.97
2023-03-15T00:27:24.018Z,77.27
2023-03-15T00:29:54.337Z,77.85
2023-03-15T00:32:24.645Z,78.84
2023-03-15T00:34:55.048Z,79.42
2023-03-15T00:37:28.530Z,79.63
2023-03-15T00:39:58.763Z,80.32
2023-03-15T00:42:29.806Z,80.70
2023-03-15T00:45:00.307Z,81.38
2023-03-15T00:47:30.694Z,81.20
2023-03-15T00:50:01.233Z,81.05
2023-03-15T00:52:38.788Z,79.67
2023-03-15T00:55:16.200Z,79.60
2023-03-15T00:57:49.436Z,78.35
2023-03-15T01:00:24.976Z,76.94
2023-03-15T01:02:56.663Z,75.95
2023-03-15T01:05:29.760Z,76.08
2023-03-15T01:08:03.181Z,75.73
2023-03-15T01:10:34.365Z,74.06
2023-03-15T01:13:07.267Z,73.48
2023-03-15T01:15:37.627Z,73.66
2023-03-15T01:18:08.207Z,73.01
2023-03-15T01:20:38.620Z,73.15
2023-03-15T01:23:12.244Z,73.04
2023-03-15T01:25:43.413Z,73.42
2023-03-15T01:28:13.961Z,73.71
2023-03-15T01:30:52.263Z,72.70
2023-03-15T01:33:23.169Z,72.68
2023-03-15T01:36:02.784Z,71.41
2023-03-15T01:38:37.341Z,72.22
2023-03-15T01:41:08.471Z,72.28
2023-03-15T01:43:38.907Z,71.30
2023-03-15T01:46:26.481Z,72.40
2023-03-15T01:49:12.597Z,74.25
2023-03-15T01:51:50.127Z,75.14
2023-03-15T01:54:31.059Z,75.40
2023-03-15T01:57:06.690Z,76.54
2023-03-15T01:59:43.447Z,76.18
2023-03-15T02:02:15.662Z,76.77
2023-03-15T02:04:52.273Z,77.95
2023-03-15T02:07:27.243Z,77.85
2023-03-15T02:10:08.325Z,78.00
2023-03-15T02:12:45.753Z,77.93
2023-03-15T02:15:19.236Z,77.67
2023-03-15T02:17:52.111Z,78.29
2023-03-15T02:20:35.567Z,79.10
2023-03-15T02:23:10.103Z,79.41
2023-03-15T02:25:54.951Z,79.59
2023-03-15T02:28:29.223Z,77.01
2023-03-15T02:31:00.794Z,76.52
2023-03-15T02:33:38.005Z,75.77
2023-03-15T02:36:14.704Z,76.06
2023-03-15T02:38:48.090Z,75.96
2023-03-15T02:41:22.312Z,77.08
2023-03-15T02:44:05.313Z,78.11
2023-03-15T02:46:36.002Z,79.20
2023-03-15T02:49:09.682Z,78.97
2023-03-15T02:51:50.568Z,79.40
2023-03-15T02:54:34.562Z,79.29
2023-03-15T02:57:05.984Z,79.64
2023-03-15T02:59:43.263Z,79.59
2023-03-15T03:02:17.915Z,80.28
2023-03-15T03:04:50.517Z,80.68
2023-03-15T03:07:22.616Z,81.27
2023-03-15T03:10:02.114Z,82.36
2023-03-15T03:12:44.949Z,82.31
2023-03-15T03:15:18.432Z,82.58
2023-03-15T03:17:52.072Z,82.12
2023-03-15T03:20:27.598Z,81.69
2023-03-15T03:23:06.643Z,80.57
2023-03-15T03:25:37.836Z,79.70
2023-03-15T03:28:08.412Z,79.68
2023-03-15T03:30:42.014Z,79.90
2023-03-15T03:33:20.306Z,80.30
2023-03-15T03:35:54.447Z,81.29
2023-03-15T03:38:28.270Z,81.28
2023-03-15T03:41:03.451Z,81.81
2023-03-15T03:43:35.731Z,82.02
2023-03-15T03:46:13.745Z,82.92
2023-03-15T03:48:51.066Z,82.80
2023-03-15T03:51:29.579Z,83.57
2023-03-15T03:53:59.962Z,83.64
2023-03-15T03:56:30.485Z,84.10
2023-03-15T03:59:00.779Z,84.45
2023-03-15T04:01:45.615Z,84.45
2023-03-15T04:04:16.278Z,84.60
2023-03-15T04:06:50.784Z,84.83
2023-03-15T04:09:27.732Z,85.50
2023-03-15T04:11:58.437Z,85.26
2023-03-15T04:14:29.198Z,85.66
2023-03-15T04:17:03.924Z,85.74
2023-03-15T04:19:37.745Z,85.05
2023-03-15T04:22:09.580Z,84.82
2023-03-15T04:24:50.758Z,84.94
2023-03-15T04:27:44.626Z,84.80
2023-03-15T04:30:38.055Z,84.56
2023-03-15T04:33:24.630Z,83.90
2023-03-15T04:36:18.246Z,83.92
2023-03-15T04:39:08.302Z,84.25
2023-03-15T04:41:51.025Z,83.81
2023-03-15T04:44:44.184Z,83.54
2023-03-15T04:47:37.286Z,83.13
2023-03-15T04:50:28.780Z,82.38
2023-03-15T04:53:17.320Z,82.05
2023-03-15T04:56:05.969Z,81.86
2023-03-15T04:59:00.297Z,82.33
2023-03-15T05:01:50.746Z,82.61
2023-03-15T05:04:39.580Z,82.54
2023-03-15T05:07:23.328Z,82.51
2023-03-15T05:09:53.678Z,82.65
2023-03-15T05:12:43.024Z,82.99
2023-03-15T05:15:35.853Z,82.79
2023-03-15T05:18:27.671Z,83.26
2023-03-15T05:21:29.923Z,83.60
2023-03-15T05:27:39.115Z,83.28
2023-03-15T05:30:36.426Z,83.16
2023-03-15T05:33:17.114Z,82.85
2023-03-15T05:36:08.790Z,82.49
2023-03-15T05:38:59.352Z,82.68
2023-03-15T05:41:50.893Z,82.24
2023-03-15T05:44:32.615Z,82.33
2023-03-15T05:47:21.682Z,82.03
2023-03-15T05:50:14.212Z,81.38
2023-03-15T05:52:57.144Z,80.71
2023-03-15T05:55:40.104Z,79.72
2023-03-15T05:58:36.053Z,78.55
2023-03-15T06:01:26.918Z,77.04
2023-03-15T06:04:08.349Z,76.57
2023-03-15T06:06:40.061Z,76.00
2023-03-15T06:09:12.592Z,75.25
2023-03-15T06:11:43.265Z,73.69
2023-03-15T06:14:18.875Z,73.47
2023-03-15T06:16:59.410Z,73.20
2023-03-15T06:19:32.194Z,73.12
2023-03-15T06:22:03.773Z,73.44
2023-03-15T06:24:41.433Z,72.88
2023-03-15T06:27:12.220Z,73.48
2023-03-15T06:29:45.434Z,72.80
2023-03-15T06:32:15.896Z,71.99
2023-03-15T06:34:46.479Z,71.14
2023-03-15T06:37:29.072Z,69.26
2023-03-15T06:40:06.073Z,67.86
2023-03-15T06:42:36.924Z,66.31
2023-03-15T06:45:13.227Z,66.15
2023-03-15T06:47:43.525Z,64.08
2023-03-15T06:50:15.099Z,64.26
2023-03-15T06:52:45.570Z,62.91
2023-03-15T06:55:18.382Z,63.73
2023-03-15T06:57:49.244Z,62.78
2023-03-15T07:00:23.469Z,63.34
2023-03-15T07:02:53.853Z,64.07
2023-03-15T07:05:24.418Z,63.93
2023-03-15T07:07:54.844Z,64.73
2023-03-15T07:10:25.110Z,65.32
2023-03-15T07:12:55.472Z,65.55
2023-03-15T07:15:28.549Z,64.38
2023-03-15T07:17:58.843Z,64.97
2023-03-15T07:20:29.171Z,65.27
2023-03-15T07:22:59.502Z,63.75
2023-03-15T07:25:29.863Z,63.71
2023-03-15T07:28:00.133Z,63.14
2023-03-15T07:30:33.190Z,62.90
2023-03-15T07:33:03.469Z,58.52
2023-03-15T07:35:33.783Z,56.74
2023-03-15T07:38:06.660Z,56.04
2023-03-15T07:40:36.959Z,55.04
2023-03-15T07:43:07.289Z,54.64
2023-03-15T07:45:40.327Z,56.12
2023-03-15T07:48:11.288Z,56.02
2023-03-15T07:50:41.790Z,58.17
2023-03-15T07:53:12.263Z,61.68
2023-03-15T07:55:42.720Z,65.23
2023-03-15T07:58:13.063Z,68.05
2023-03-15T08:00:46.026Z,69.01
2023-03-15T08:03:16.356Z,68.43
2023-03-15T08:05:46.668Z,67.78
2023-03-15T08:08:16.937Z,66.80
2023-03-15T08:10:48.308Z,66.43
2023-03-15T08:13:18.613Z,66.42
2023-03-15T08:15:51.612Z,66.74
2023-03-15T08:18:21.902Z,66.77
2023-03-15T08:20:52.348Z,67.64
2023-03-15T08:23:22.643Z,68.46
2023-03-15T08:25:53.190Z,68.91
2023-03-15T08:28:24.642Z,70.63
2023-03-15T08:30:57.546Z,72.75
2023-03-15T08:33:30.270Z,74.42
2023-03-15T08:36:01.277Z,75.46
2023-03-15T08:38:31.663Z,76.05
2023-03-15T08:41:02.608Z,77.52
2023-03-15T08:43:32.978Z,78.15
2023-03-15T08:46:05.990Z,79.23
2023-03-15T08:48:36.265Z,79.34
2023-03-15T08:51:07.375Z,80.48
2023-03-15T08:53:38.510Z,81.10
2023-03-15T08:56:09.449Z,82.26
2023-03-15T08:58:39.992Z,83.06
2023-03-15T09:01:15.185Z,83.13
2023-03-15T09:03:45.856Z,82.36
2023-03-15T09:06:16.197Z,82.72
2023-03-15T09:08:46.607Z,82.86
2023-03-15T09:11:16.925Z,83.30
2023-03-15T09:13:47.184Z,82.65
2023-03-15T09:16:20.232Z,83.18
2023-03-15T09:18:50.753Z,82.78
2023-03-15T09:21:21.053Z,84.23
2023-03-15T09:23:51.453Z,83.24
2023-03-15T09:26:23.420Z,82.99
2023-03-15T09:28:53.744Z,82.01
2023-03-15T09:31:27.561Z,79.90
2023-03-15T09:33:58.727Z,79.03
2023-03-15T09:36:29.174Z,80.07
2023-03-15T09:38:59.578Z,80.71
2023-03-15T09:41:46.050Z,79.69
2023-03-15T09:44:31.290Z,80.24
2023-03-15T09:47:19.250Z,79.33
2023-03-15T09:49:55.457Z,80.13
2023-03-15T09:52:36.717Z,80.96
2023-03-15T09:55:16.218Z,81.93
2023-03-15T09:57:53.546Z,81.28
2023-03-15T10:00:28.933Z,81.92
2023-03-15T10:03:07.375Z,83.11
2023-03-15T10:05:44.645Z,82.04
2023-03-15T10:08:17.672Z,80.27
2023-03-15T10:10:55.075Z,80.16
2023-03-15T10:13:42.493Z,79.09
2023-03-15T10:16:31.970Z,79.71
2023-03-15T10:19:17.500Z,79.19
2023-03-15T10:21:58.671Z,78.76
2023-03-15T10:24:39.080Z,77.66
2023-03-15T10:27:20.913Z,76.31
2023-03-15T10:29:53.751Z,75.87
2023-03-15T10:32:30.410Z,75.38
2023-03-15T10:35:12.247Z,73.00
2023-03-15T10:37:42.707Z,71.37
2023-03-15T10:40:16.475Z,69.49
2023-03-15T10:42:49.079Z,67.22
2023-03-15T10:45:25.749Z,66.13
2023-03-15T10:48:00.697Z,67.39
2023-03-15T10:50:36.205Z,66.84
2023-03-15T10:53:14.214Z,66.91
2023-03-15T10:55:47.712Z,67.88
2023-03-15T10:58:31.568Z,68.63
2023-03-15T11:01:09.716Z,68.01
2023-03-15T11:03:41.077Z,67.49
2023-03-15T11:06:29.856Z,69.25
2023-03-15T11:09:14.664Z,68.59
2023-03-15T11:12:03.931Z,68.20
2023-03-15T11:14:40.918Z,68.43
2023-03-15T11:17:23.488Z,67.25
2023-03-15T11:19:59.978Z,67.96
2023-03-15T11:22:33.226Z,68.50
2023-03-15T11:25:03.656Z,68.10
2023-03-15T11:27:34.709Z,65.58
2023-03-15T11:30:05.534Z,64.27
2023-03-15T11:32:36.564Z,63.29
2023-03-15T11:35:13.449Z,61.83
2023-03-15T11:37:55.185Z,62.15
2023-03-15T11:40:36.557Z,62.28
2023-03-15T11:43:13.660Z,61.78
2023-03-15T11:45:49.548Z,62.89
2023-03-15T11:48:44.641Z,62.44
2023-03-15T11:51:16.997Z,60.74
2023-03-15T11:53:58.534Z,58.25
2023-03-15T11:56:32.312Z,54.13
2023-03-15T11:59:11.332Z,48.83
2023-03-15T12:01:49.804Z,46.57
2023-03-15T12:04:40.767Z,42.38
2023-03-15T12:08:22.042Z,39.96
2023-03-15T12:10:55.862Z,40.54
2023-03-15T12:13:29.801Z,42.14
2023-03-15T12:16:00.963Z,44.02
2023-03-15T12:18:43.112Z,45.70
2023-03-15T12:21:26.870Z,47.32
2023-03-15T12:24:05.318Z,48.08
2023-03-15T12:26:44.918Z,47.66
2023-03-15T12:29:24.136Z,47.50
2023-03-15T12:32:00.167Z,49.87
2023-03-15T12:34:40.075Z,52.10
2023-03-15T12:37:17.183Z,52.43
2023-03-15T12:39:52.182Z,53.07
2023-03-15T12:43:13.374Z,53.79
2023-03-15T12:45:52.586Z,51.21
2023-03-15T12:48:26.895Z,52.56
2023-03-15T12:51:01.408Z,54.16
2023-03-15T12:53:43.942Z,54.49
2023-03-15T12:56:44.503Z,56.13
2023-03-15T12:59:41.334Z,57.09
2023-03-15T13:02:43.288Z,61.48
2023-03-15T13:05:26.668Z,66.36
2023-03-15T13:08:07.243Z,69.20
2023-03-15T13:11:14.019Z,72.63
2023-03-15T13:14:10.793Z,75.56
2023-03-15T13:16:47.855Z,77.52
2023-03-15T13:19:25.784Z,79.83
2023-03-15T13:22:08.905Z,81.61
2023-03-15T13:24:52.468Z,83.48
2023-03-15T13:27:45.643Z,86.39
2023-03-15T13:30:36.543Z,88.94
2023-03-15T13:33:21.138Z,92.81
2023-03-15T13:36:01.217Z,95.15
2023-03-15T13:38:35.692Z,96.20
2023-03-15T13:41:17.730Z,96.77
2023-03-15T13:43:48.916Z,93.06
2023-03-15T13:46:22.920Z,84.86
2023-03-15T13:48:55.102Z,79.04
2023-03-15T13:51:32.038Z,80.73
2023-03-15T13:54:07.868Z,84.14
2023-03-15T13:56:49.318Z,84.48
2023-03-15T13:59:21.118Z,80.26
2023-03-15T14:01:54.158Z,64.08
2023-03-15T14:04:27.282Z,53.31
2023-03-15T14:07:38.021Z,47.45
2023-03-15T14:10:25.920Z,45.09
2023-03-15T14:12:57.990Z,42.09
2023-03-15T14:15:38.381Z,39.74
2023-03-15T14:18:21.110Z,39.19
2023-03-15T14:21:00.089Z,40.11
2023-03-15T14:23:34.006Z,38.26
2023-03-15T14:26:13.858Z,42.41
2023-03-15T14:28:44.920Z,47.80
2023-03-15T14:31:25.055Z,53.15
2023-03-15T14:34:00.918Z,56.29
2023-03-15T14:36:38.608Z,58.95
2023-03-15T14:39:21.955Z,61.06
2023-03-15T14:41:52.334Z,60.58
2023-03-15T14:44:22.850Z,60.83
2023-03-15T14:46:53.810Z,60.73
2023-03-15T14:49:28.608Z,59.71
2023-03-15T14:52:03.806Z,62.19
2023-03-15T14:54:37.427Z,56.63
2023-03-15T14:57:07.852Z,53.87
2023-03-15T14:59:38.242Z,56.80
2023-03-15T15:02:09.294Z,61.71
2023-03-15T15:04:40.922Z,66.36
2023-03-15T15:07:14.433Z,64.41
2023-03-15T15:09:52.217Z,55.35
2023-03-15T15:12:22.628Z,50.90
2023-03-15T15:14:53.082Z,46.08
2023-03-15T15:17:23.714Z,46.78
2023-03-15T15:19:54.153Z,50.11
2023-03-15T15:22:24.776Z,46.01
2023-03-15T15:24:57.703Z,44.90
2023-03-15T15:27:28.138Z,43.04
2023-03-15T15:29:58.498Z,43.85
2023-03-15T15:32:29.008Z,44.87
2023-03-15T15:34:59.543Z,42.37
2023-03-15T15:37:29.968Z,45.27
2023-03-15T15:40:04.225Z,49.38
2023-03-15T15:42:34.598Z,50.40
2023-03-15T15:45:13.312Z,53.45
2023-03-15T15:47:44.133Z,56.64
2023-03-15T15:50:17.568Z,59.38
2023-03-15T15:52:54.358Z,61.74
2023-03-15T15:55:33.962Z,63.23
2023-03-15T15:58:05.397Z,65.42
2023-03-15T16:00:35.728Z,64.08
2023-03-15T16:03:15.104Z,61.66
2023-03-15T16:05:48.543Z,58.98
2023-03-15T16:08:24.727Z,59.11
2023-03-15T16:10:57.798Z,58.94
2023-03-15T16:13:28.117Z,58.58
2023-03-15T16:15:58.590Z,59.27
2023-03-15T16:18:28.940Z,60.02
2023-03-15T16:20:59.508Z,59.73
2023-03-15T16:23:29.904Z,59.62
2023-03-15T16:26:02.821Z,63.04
2023-03-15T16:28:33.330Z,63.72
2023-03-15T16:31:03.890Z,63.23
2023-03-15T16:33:35.076Z,66.04
2023-03-15T16:36:05.517Z,69.68
2023-03-15T16:38:38.946Z,71.04
2023-03-15T16:41:16.735Z,72.92
2023-03-15T16:43:49.423Z,75.04
2023-03-15T16:46:20.638Z,77.23
2023-03-15T16:48:50.994Z,78.18
2023-03-15T16:51:21.406Z,79.47
2023-03-15T16:53:55.430Z,80.02
2023-03-15T16:56:36.676Z,81.26
2023-03-15T16:59:07.727Z,81.71
2023-03-15T17:01:38.305Z,81.21
2023-03-15T17:04:12.465Z,80.65
2023-03-15T17:06:45.406Z,80.33
2023-03-15T17:09:18.855Z,80.20
2023-03-15T17:11:56.052Z,80.59
2023-03-15T17:14:34.774Z,81.23
2023-03-15T17:17:05.441Z,80.70
2023-03-15T17:19:36.252Z,80.26
2023-03-15T17:22:11.141Z,80.73
2023-03-15T17:24:43.619Z,80.79
2023-03-15T17:27:25.627Z,81.27
2023-03-15T17:29:56.059Z,81.06
2023-03-15T17:32:26.583Z,81.62
2023-03-15T17:34:59.137Z,82.53
2023-03-15T17:37:35.502Z,82.41
2023-03-15T17:40:11.790Z,82.87
2023-03-15T17:42:45.005Z,82.23
2023-03-15T17:45:20.886Z,82.36
2023-03-15T17:47:51.262Z,83.08
2023-03-15T17:50:22.516Z,83.41
2023-03-15T17:52:56.798Z,83.52
2023-03-15T17:55:30.025Z,83.29
2023-03-15T17:58:03.244Z,82.62
2023-03-15T18:00:34.570Z,82.76
2023-03-15T18:03:04.867Z,83.14
2023-03-15T18:05:35.204Z,83.41
2023-03-15T18:08:06.778Z,82.83
2023-03-15T18:10:41.711Z,82.74
2023-03-15T18:13:21.691Z,82.84
2023-03-15T18:15:53.046Z,83.42
2023-03-15T18:18:23.401Z,83.74
2023-03-15T18:20:54.088Z,83.13
2023-03-15T18:23:24.630Z,82.58
2023-03-15T18:25:57.819Z,82.50
2023-03-15T18:28:30.931Z,81.84
2023-03-15T18:31:01.309Z,81.03
2023-03-15T18:33:31.935Z,81.03
2023-03-15T18:36:02.392Z,80.78
2023-03-15T18:38:33.217Z,81.10
2023-03-15T18:41:03.781Z,81.33
2023-03-15T18:43:37.022Z,81.44
2023-03-15T18:46:07.651Z,81.31
2023-03-15T18:48:41.071Z,81.56
2023-03-15T18:51:13.890Z,82.17
2023-03-15T18:53:46.554Z,81.94
2023-03-15T18:56:21.448Z,81.64
2023-03-15T18:58:55.901Z,81.72
2023-03-15T19:01:27.222Z,82.00
2023-03-15T19:03:57.992Z,81.92
2023-03-15T19:06:28.517Z,82.59
2023-03-15T19:09:00.854Z,82.96
2023-03-15T19:11:32.448Z,82.24
2023-03-15T19:14:05.410Z,82.38
2023-03-15T19:16:38.433Z,82.00
2023-03-15T19:19:09.110Z,82.48
2023-03-15T19:21:39.561Z,83.00
2023-03-15T19:24:11.133Z,82.38
2023-03-15T19:26:42.019Z,80.64
2023-03-15T19:29:15.002Z,81.17
2023-03-15T19:31:45.430Z,83.00
2023-03-15T19:34:15.759Z,83.54
2023-03-15T19:36:46.122Z,82.25
2023-03-15T19:39:16.503Z,79.89
2023-03-15T19:41:47.259Z,77.63
2023-03-15T19:44:22.491Z,76.59
2023-03-15T19:46:53.231Z,76.41
2023-03-15T19:49:24.154Z,75.29
2023-03-15T19:51:54.618Z,76.10
2023-03-15T19:54:25.200Z,79.01
2023-03-15T19:56:55.898Z,80.24
2023-03-15T19:59:33.267Z,80.74
2023-03-15T20:02:03.671Z,80.56
2023-03-15T20:04:34.101Z,78.94
2023-03-15T20:07:04.521Z,80.37
2023-03-15T20:09:38.958Z,81.41
2023-03-15T20:12:10.523Z,81.71
2023-03-15T20:14:43.915Z,82.11
2023-03-15T20:17:15.310Z,82.70
2023-03-15T20:19:45.833Z,83.36
2023-03-15T20:22:16.251Z,83.23
2023-03-15T20:24:46.947Z,83.21
2023-03-15T20:27:17.443Z,83.77
2023-03-15T20:29:51.995Z,83.91
2023-03-15T20:32:22.432Z,84.06
2023-03-15T20:34:57.105Z,83.96
2023-03-15T20:37:27.611Z,84.11
2023-03-15T20:39:58.082Z,84.25
2023-03-15T20:42:28.545Z,84.09
2023-03-15T20:45:01.555Z,83.92
2023-03-15T20:47:31.969Z,83.90
2023-03-15T20:50:02.401Z,82.82
2023-03-15T20:52:34.336Z,83.14
2023-03-15T20:55:08.026Z,83.08
2023-03-15T20:57:41.572Z,83.14
2023-03-15T21:00:20.122Z,83.01
2023-03-15T21:02:51.395Z,83.49
2023-03-15T21:05:24.333Z,83.60
2023-03-15T21:07:56.028Z,83.58
2023-03-15T21:10:26.757Z,83.53
2023-03-15T21:12:57.388Z,82.90
2023-03-15T21:15:30.571Z,81.92
2023-03-15T21:18:01.070Z,82.17
2023-03-15T21:20:32.948Z,81.94
2023-03-15T21:23:03.347Z,81.80
2023-03-15T21:25:33.808Z,82.05
2023-03-15T21:28:04.248Z,82.56
2023-03-15T21:30:37.984Z,82.88
2023-03-15T21:33:08.373Z,83.11
2023-03-15T21:35:41.443Z,83.16
2023-03-15T21:38:11.892Z,83.38
2023-03-15T21:40:46.569Z,83.32
2023-03-15T21:43:17.364Z,83.30
2023-03-15T21:45:51.004Z,82.96
2023-03-15T21:48:21.724Z,82.71
2023-03-15T21:50:54.146Z,82.49
2023-03-15T21:53:27.262Z,82.37
2023-03-15T21:55:59.657Z,82.50
2023-03-15T21:58:31.476Z,82.52
2023-03-15T22:01:08.114Z,82.32
2023-03-15T22:03:41.865Z,82.45
2023-03-15T22:06:13.141Z,82.09
2023-03-15T22:08:43.333Z,82.06
2023-03-15T22:11:13.982Z,82.07
2023-03-15T22:13:44.755Z,82.62
2023-03-15T22:16:17.975Z,83.10
2023-03-15T22:18:54.118Z,83.58
2023-03-15T22:21:27.839Z,83.95
2023-03-15T22:23:58.245Z,84.22
2023-03-15T22:26:28.718Z,84.20
2023-03-15T22:28:59.130Z,84.47
2023-03-15T22:31:32.887Z,85.09
2023-03-15T22:34:04.903Z,85.80
2023-03-15T22:36:38.890Z,86.56
2023-03-15T22:39:09.313Z,86.82
2023-03-15T22:41:39.759Z,87.21
2023-03-15T22:44:10.105Z,87.19
2023-03-15T22:46:44.749Z,86.56
2023-03-15T22:49:15.170Z,85.92
2023-03-15T22:51:45.858Z,85.19
2023-03-15T22:54:16.214Z,84.14
2023-03-15T22:56:46.795Z,83.40
2023-03-15T22:59:17.238Z,83.26
2023-03-15T23:01:50.267Z,83.12
2023-03-15T23:04:20.710Z,82.84
2023-03-15T23:06:54.645Z,82.78
2023-03-15T23:09:24.933Z,82.68
2023-03-15T23:11:55.384Z,81.95
2023-03-15T23:14:25.888Z,82.70
2023-03-15T23:16:59.340Z,83.16
2023-03-15T23:19:29.677Z,83.37
2023-03-15T23:22:00.029Z,83.64
2023-03-15T23:24:30.769Z,83.14
2023-03-15T23:27:03.525Z,83.18
2023-03-15T23:29:47.162Z,83.55
2023-03-15T23:32:27.802Z,83.65
2023-03-15T23:34:58.177Z,83.83
2023-03-15T23:37:28.765Z,84.21
2023-03-15T23:39:59.172Z,84.28
2023-03-15T23:42:32.703Z,84.73
2023-03-15T23:45:03.071Z,84.92
2023-03-15T23:47:35.992Z,85.03
2023-03-15T23:50:06.750Z,85.00
2023-03-15T23:52:37.603Z,84.71
2023-03-15T23:55:09.281Z,84.80
2023-03-15T23:57:39.688Z,85.10
